Time;durP1;ratioP1;P1;durP2;ratioP2;P2;SDS_P1;SDS_P2;PMS_P1;PMS_P2;Temp;Humidity;BMP_temperature;BMP_pressure;BME280_temperature;BME280_humidity;BME280_pressure;Samples;Min_cycle;Max_cycle;Signal;HPM_P1;HPM_P2
2022/05/23 00:00:11;;;;;;;5.00;3.97;;;;;;;12.38;80.11;99579.52;1765365;80;21364;-69
2022/05/23 00:02:38;;;;;;;5.53;4.67;;;;;;;12.39;80.12;99586.45;1761817;80;21128;-69
2022/05/23 00:05:06;;;;;;;5.30;4.77;;;;;;;12.38;80.09;99589.69;1764597;80;21140;-69
2022/05/23 00:07:40;;;;;;;5.93;5.07;;;;;;;12.38;80.08;99589.69;1765207;80;21244;-69
2022/05/23 00:10:08;;;;;;;5.23;4.73;;;;;;;12.38;80.08;99589.69;1765950;80;21307;-70
2022/05/23 00:12:36;;;;;;;7.40;5.37;;;;;;;12.35;80.06;99588.92;1761573;80;21769;-70
2022/05/23 00:15:07;;;;;;;5.60;5.00;;;;;;;12.37;80.08;99596.66;1757037;80;21223;-69
2022/05/23 00:17:35;;;;;;;6.17;5.03;;;;;;;12.37;80.06;99594.80;1760257;80;21196;-69
2022/05/23 00:20:06;;;;;;;5.87;4.63;;;;;;;12.34;80.05;99595.89;1766060;80;21335;-69
2022/05/23 00:22:33;;;;;;;5.40;4.57;;;;;;;12.32;80.09;99594.86;1763890;80;21816;-69
2022/05/23 00:25:04;;;;;;;6.30;5.03;;;;;;;12.32;80.10;99595.41;1763128;80;21854;-70
2022/05/23 00:27:29;;;;;;;5.47;4.27;;;;;;;12.31;80.06;99597.30;1764630;80;21348;-70
2022/05/23 00:29:56;;;;;;;9.30;5.00;;;;;;;12.32;80.08;99596.75;1765784;80;21088;-70
2022/05/23 00:35:19;;;;;;;6.37;4.87;;;;;;;12.33;80.01;99605.81;1757175;80;21215;-70
2022/05/23 00:37:50;;;;;;;5.20;4.47;;;;;;;12.34;80.00;99610.11;1764988;80;21272;-69
2022/05/23 00:40:22;;;;;;;6.80;5.25;;;;;;;12.35;79.92;99611.69;1767963;80;21710;-69
2022/05/23 00:45:35;;;;;;;9.18;5.00;;;;;;;12.37;79.80;99616.22;1726115;82;21272;-70
2022/05/23 00:48:02;;;;;;;6.67;4.27;;;;;;;12.34;79.74;99614.64;1728278;82;21195;-69
2022/05/23 00:50:32;;;;;;;5.23;4.53;;;;;;;12.34;79.72;99619.48;1729638;82;21184;-69
2022/05/23 00:52:59;;;;;;;5.20;4.50;;;;;;;12.34;79.69;99625.35;1732469;82;21266;-70
2022/05/23 00:55:30;;;;;;;6.30;5.27;;;;;;;12.32;79.62;99620.85;1765825;80;21269;-69
2022/05/23 00:58:01;;;;;;;6.63;5.00;;;;;;;12.30;79.48;99625.69;1761958;80;21772;-70
2022/05/23 01:00:28;;;;;;;;;;;;;;;12.27;79.43;99616.89;1768992;80;21834;-70
2022/05/23 01:03:01;;;;;;;5.93;4.33;;;;;;;12.26;79.36;99622.01;1767113;80;20149;-69
2022/05/23 01:05:28;;;;;;;5.87;4.80;;;;;;;12.24;79.29;99625.51;1766392;80;21568;-69
2022/05/23 01:07:58;;;;;;;5.63;4.27;;;;;;;12.22;79.26;99619.66;1753185;80;21066;-69
2022/05/23 01:10:29;;;;;;;6.37;5.03;;;;;;;12.20;79.23;99620.73;1755872;80;21331;-70
2022/05/23 01:12:56;;;;;;;6.17;5.00;;;;;;;12.20;79.20;99619.94;1751378;81;21844;-70
2022/05/23 01:15:26;;;;;;;5.30;4.80;;;;;;;12.20;79.17;99619.94;1763929;80;21268;-69
2022/05/23 01:17:54;;;;;;;5.87;4.27;;;;;;;12.18;79.11;99624.27;1766147;80;21797;-70
2022/05/23 01:20:22;;;;;;;6.23;5.57;;;;;;;12.18;79.10;99625.59;1764227;80;21828;-70
2022/05/23 01:23:21;;;;;;;6.40;5.00;;;;;;;12.17;79.09;99627.20;1763957;80;21255;-71
2022/05/23 01:25:53;;;;;;;9.30;5.17;;;;;;;12.15;79.07;99628.06;1745908;81;21285;-70
2022/05/23 01:28:25;;;;;;;6.22;4.75;;;;;;;12.16;79.08;99626.97;1763280;79;22086;-70
2022/05/23 01:30:52;;;;;;;6.37;5.00;;;;;;;12.19;79.04;99631.20;1760267;80;20991;-70
2022/05/23 01:33:21;;;;;;;6.00;5.03;;;;;;;12.22;78.97;99629.03;1762891;80;21286;-70
2022/05/23 01:35:49;;;;;;;5.70;4.30;;;;;;;12.25;78.91;99629.80;1766316;80;20935;-70
2022/05/23 01:38:16;;;;;;;7.80;5.33;;;;;;;12.26;78.82;99630.83;1763326;80;21223;-70
2022/05/23 01:40:44;;;;;;;7.20;5.03;;;;;;;12.28;78.77;99631.89;1765888;80;21542;-70
2022/05/23 01:43:14;;;;;;;7.17;5.37;;;;;;;12.30;78.72;99627.81;1762343;80;21752;-70
2022/05/23 01:45:42;;;;;;;6.00;5.13;;;;;;;12.37;78.61;99642.18;1764075;80;21338;-70
2022/05/23 01:48:19;;;;;;;6.60;4.47;;;;;;;12.39;78.55;99648.84;1764952;80;21314;-70
2022/05/23 01:50:48;;;;;;;6.43;5.50;;;;;;;12.42;78.44;99643.45;1764026;81;22154;-69
2022/05/23 01:53:15;;;;;;;8.37;5.13;;;;;;;12.39;78.34;99644.83;1764348;80;21376;-71
2022/05/23 01:55:46;;;;;;;;;;;;;;;12.41;78.20;99647.23;1767203;80;21245;-71
2022/05/23 02:01:12;;;;;;;6.95;5.00;;;;;;;12.40;78.22;99651.80;1764902;80;20441;-68
2022/05/23 02:03:34;;;;;;;6.00;5.40;;;;;;;12.33;78.37;99652.67;1765000;80;21252;-68
2022/05/23 02:06:01;;;;;;;6.67;5.13;;;;;;;12.32;78.39;99659.67;1765723;80;21202;-69
2022/05/23 02:08:28;;;;;;;6.37;5.47;;;;;;;12.30;78.42;99665.85;1755512;80;21333;-69
2022/05/23 02:10:57;;;;;;;6.43;5.40;;;;;;;12.28;78.49;99659.46;1756670;81;21271;-69
2022/05/23 02:13:30;;;;;;;5.75;5.15;;;;;;;12.28;78.52;99664.81;1762836;80;21249;-69
2022/05/23 02:15:59;;;;;;;7.17;5.60;;;;;;;12.29;78.58;99669.08;1736281;82;20931;-70
2022/05/23 02:18:46;;;;;;;6.50;5.87;;;;;;;12.30;78.63;99667.98;1731365;82;21269;-69
2022/05/23 02:21:13;;;;;;;7.97;6.67;;;;;;;12.30;78.67;99670.66;1766330;80;21670;-69
2022/05/23 02:23:41;;;;;;;8.30;5.80;;;;;;;12.29;78.68;99666.40;1750977;80;21740;-69
2022/05/23 02:26:09;;;;;;;7.30;5.67;;;;;;;12.31;78.69;99670.94;1761661;80;21722;-69
2022/05/23 02:28:45;;;;;;;6.60;5.60;;;;;;;12.29;78.66;99670.41;1750312;79;21537;-69
2022/05/23 02:31:14;;;;;;;7.63;6.30;;;;;;;12.27;78.62;99672.58;1764339;80;21255;-70
2022/05/23 02:33:45;;;;;;;6.78;5.92;;;;;;;12.26;78.58;99669.66;1761309;80;21240;-68
2022/05/23 02:36:20;;;;;;;7.23;5.57;;;;;;;12.27;78.58;99676.59;1764362;80;21090;-69
2022/05/23 02:38:47;;;;;;;6.97;6.27;;;;;;;12.26;78.51;99677.69;1763488;80;21593;-69
2022/05/23 02:41:15;;;;;;;8.17;6.83;;;;;;;12.26;78.48;99680.36;1763026;80;21386;-70
2022/05/23 02:43:42;;;;;;;8.37;6.80;;;;;;;12.27;78.50;99679.81;1764721;80;21247;-70
2022/05/23 02:46:13;;;;;;;8.80;6.20;;;;;;;12.28;78.49;99684.90;1751119;80;21631;-69
2022/05/23 02:48:43;;;;;;;7.80;6.27;;;;;;;12.32;78.50;99681.89;1762678;80;21294;-69
2022/05/23 02:51:10;;;;;;;6.40;5.80;;;;;;;12.37;78.46;99685.84;1761161;80;21284;-69
2022/05/23 02:53:39;;;;;;;6.70;5.67;;;;;;;12.39;78.42;99683.66;1763051;80;21705;-69
2022/05/23 02:56:06;;;;;;;7.60;5.80;;;;;;;12.42;78.37;99687.64;1764709;80;21327;-69
2022/05/23 02:58:33;;;;;;;6.93;5.47;;;;;;;12.43;78.18;99683.87;1765759;80;21173;-69
2022/05/23 03:01:00;;;;;;;8.60;6.33;;;;;;;12.42;78.15;99694.34;1762598;80;21181;-70
2022/05/23 03:03:29;;;;;;;7.13;5.87;;;;;;;12.41;78.16;99704.26;1766003;80;21737;-69
2022/05/23 03:05:58;;;;;;;7.30;6.00;;;;;;;12.42;78.17;99699.14;1767089;80;21246;-69
2022/05/23 03:08:27;;;;;;;7.93;5.83;;;;;;;12.40;78.08;99701.34;1761785;80;21316;-69
2022/05/23 03:11:00;;;;;;;6.40;5.70;;;;;;;12.40;78.15;99706.69;1768837;80;21789;-69
2022/05/23 03:13:27;;;;;;;7.00;6.30;;;;;;;12.40;78.22;99710.71;1754129;80;21410;-69
2022/05/23 03:15:54;;;;;;;7.87;5.73;;;;;;;12.42;78.26;99719.23;1764745;80;21046;-69
2022/05/23 03:18:23;;;;;;;7.67;6.30;;;;;;;12.42;78.20;99711.75;1763390;80;21612;-69
2022/05/23 03:21:11;;;;;;;7.90;5.85;;;;;;;12.44;78.16;99711.72;1765695;80;21174;-69
2022/05/23 03:29:12;;;;;;;6.37;5.23;;;;;;;12.43;77.60;99718.14;1729625;81;21267;-70
2022/05/23 03:31:39;;;;;;;8.30;5.77;;;;;;;12.12;78.33;99715.09;1765934;80;21241;-69
2022/05/23 03:34:08;;;;;;;6.47;5.57;;;;;;;12.29;78.11;99719.16;1763897;80;21146;-69
2022/05/23 03:36:35;;;;;;;6.77;5.60;;;;;;;12.38;77.93;99721.45;1763612;80;21246;-69
2022/05/23 03:39:04;;;;;;;7.20;5.13;;;;;;;12.38;77.82;99716.89;1765293;80;21096;-69
2022/05/23 03:41:31;;;;;;;6.43;5.67;;;;;;;12.36;77.77;99719.05;1760774;80;21265;-69
2022/05/23 03:43:59;;;;;;;7.60;5.67;;;;;;;12.35;77.72;99716.67;1765778;80;21299;-69
2022/05/23 03:46:28;;;;;;;9.70;6.80;;;;;;;12.37;77.78;99719.84;1766882;80;21391;-70
2022/05/23 03:48:55;;;;;;;8.13;7.07;;;;;;;12.39;77.77;99720.36;1765179;80;21611;-70
2022/05/23 03:51:22;;;;;;;7.23;6.20;;;;;;;12.41;77.73;99722.21;1763248;80;21847;-70
2022/05/23 03:53:51;;;;;;;8.17;6.70;;;;;;;12.41;77.65;99725.69;1766738;80;21128;-68
2022/05/23 03:56:18;;;;;;;9.10;6.67;;;;;;;12.40;77.64;99725.44;1761650;80;21188;-69
2022/05/23 03:58:47;;;;;;;8.13;6.77;;;;;;;12.42;77.70;99727.27;1763728;80;21252;-70
2022/05/23 04:01:25;;;;;;;7.83;7.03;;;;;;;12.47;77.76;99723.73;1753270;80;21637;-70
2022/05/23 04:04:00;;;;;;;7.47;6.63;;;;;;;12.54;77.72;99731.41;1759764;80;21255;-69
2022/05/23 04:06:30;;;;;;;8.50;7.17;;;;;;;12.59;77.60;99725.97;1761144;80;21225;-69
2022/05/23 04:08:58;;;;;;;9.80;7.37;;;;;;;12.64;77.44;99729.38;1760211;80;21179;-69
2022/05/23 04:11:25;;;;;;;8.03;7.07;;;;;;;12.67;77.19;99727.45;1763928;80;21246;-70
2022/05/23 04:13:54;;;;;;;9.13;7.27;;;;;;;12.72;76.97;99731.93;1763626;80;21959;-69
2022/05/23 04:16:23;;;;;;;11.17;7.83;;;;;;;12.77;76.72;99731.86;1765129;80;21307;-69
2022/05/23 04:18:50;;;;;;;8.53;7.17;;;;;;;12.80;76.31;99740.66;1764310;80;21182;-70
2022/05/23 04:21:18;;;;;;;10.63;7.00;;;;;;;12.82;76.12;99729.09;1765653;80;21829;-69
2022/05/23 04:23:46;;;;;;;11.63;7.90;;;;;;;12.88;75.90;99730.61;1767031;80;21240;-69
2022/05/23 04:26:14;;;;;;;10.07;6.87;;;;;;;12.91;75.58;99734.59;1766163;80;21743;-70
2022/05/23 04:28:42;;;;;;;10.50;8.30;;;;;;;12.96;75.46;99731.81;1766655;80;21355;-73
2022/05/23 04:31:09;;;;;;;10.73;7.70;;;;;;;13.03;75.28;99734.13;1759524;80;21094;-70
2022/05/23 04:36:24;;;;;;;8.90;7.03;;;;;;;13.18;74.88;99729.86;1763365;80;21258;-69
2022/05/23 04:38:52;;;;;;;8.00;7.20;;;;;;;13.25;74.52;99732.19;1757869;81;21960;-70
2022/05/23 04:41:19;;;;;;;9.30;6.93;;;;;;;13.31;74.18;99739.06;1765149;80;21179;-70
2022/05/23 04:43:52;;;;;;;8.07;6.73;;;;;;;13.38;73.90;99738.91;1764006;79;21332;-70
2022/05/23 04:46:20;;;;;;;8.60;7.40;;;;;;;13.44;73.48;99734.27;1767310;79;21146;-69
2022/05/23 04:51:43;;;;;;;9.70;7.27;;;;;;;13.59;72.76;99738.58;1716708;81;21213;-70
2022/05/23 04:54:10;;;;;;;9.90;7.77;;;;;;;13.65;72.45;99740.05;1725204;81;21615;-69
2022/05/23 04:56:37;;;;;;;8.70;6.83;;;;;;;13.73;72.26;99746.62;1724419;81;21428;-70
2022/05/23 04:59:06;;;;;;;9.63;7.27;;;;;;;13.83;72.26;99744.53;1722752;81;21246;-70
2022/05/23 05:01:34;;;;;;;12.67;9.57;;;;;;;13.94;72.02;99753.73;1724719;81;21566;-70
2022/05/23 05:04:01;;;;;;;9.70;8.70;;;;;;;14.01;71.22;99756.25;1723479;81;21453;-71
2022/05/23 05:06:30;;;;;;;12.20;10.37;;;;;;;14.04;70.66;99747.60;1721235;81;21327;-70
2022/05/23 05:08:58;;;;;;;10.50;9.43;;;;;;;14.05;70.23;99741.16;1725418;81;21443;-70
2022/05/23 05:11:26;;;;;;;12.50;11.10;;;;;;;14.07;69.88;99744.32;1723266;81;21343;-70
2022/05/23 05:13:55;;;;;;;16.17;14.57;;;;;;;14.09;69.69;99740.01;1720960;81;21495;-69
2022/05/23 05:16:23;;;;;;;15.83;14.17;;;;;;;14.10;69.82;99740.25;1725731;81;21371;-70
2022/05/23 05:18:51;;;;;;;15.80;12.80;;;;;;;14.16;69.66;99739.05;1706264;82;21893;-70
2022/05/23 05:21:38;;;;;;;15.87;14.27;;;;;;;14.23;69.51;99742.13;1718185;81;21302;-71
2022/05/23 05:24:23;;;;;;;14.73;13.20;;;;;;;14.29;69.28;99744.95;1722286;81;21349;-71
2022/05/23 05:26:51;;;;;;;15.03;13.43;;;;;;;14.30;69.40;99737.13;1715765;82;21246;-71
2022/05/23 05:29:18;;;;;;;14.00;12.50;;;;;;;14.30;69.40;99737.13;1725223;81;21422;-71
2022/05/23 05:32:15;;;;;;;11.60;10.33;;;;;;;14.36;69.07;99741.85;1722950;81;21388;-72
2022/05/23 05:34:51;;;;;;;12.47;10.87;;;;;;;14.43;69.04;99742.78;1724677;81;21453;-70
2022/05/23 05:37:24;;;;;;;11.77;9.67;;;;;;;14.48;68.55;99745.38;1711770;81;21916;-71
2022/05/23 05:39:51;;;;;;;12.57;9.90;;;;;;;14.53;68.26;99745.27;1705417;82;21421;-70
2022/05/23 05:42:23;;;;;;;14.73;10.13;;;;;;;14.64;67.65;99745.30;1721002;81;21421;-71
2022/05/23 05:44:58;;;;;;;12.37;10.00;;;;;;;14.64;67.65;99745.30;1737047;81;21388;-71
2022/05/23 05:47:25;;;;;;;14.33;10.57;;;;;;;14.72;66.89;99742.44;1726982;81;21487;-70
2022/05/23 05:49:55;;;;;;;12.27;10.97;;;;;;;14.82;66.74;99742.19;1715700;81;21466;-73
2022/05/23 05:52:23;;;;;;;9.53;8.33;;;;;;;14.93;66.39;99744.88;1731274;82;21819;-70
2022/05/23 05:54:52;;;;;;;10.77;7.87;;;;;;;14.93;66.39;99739.50;1726850;82;22125;-70
2022/05/23 05:57:20;;;;;;;8.50;6.97;;;;;;;14.97;65.32;99745.88;1734122;82;21827;-71
2022/05/23 05:59:49;;;;;;;9.40;6.97;;;;;;;15.03;64.73;99749.77;1734855;82;21692;-71
2022/05/23 06:02:17;;;;;;;10.90;6.73;;;;;;;15.10;64.54;99741.50;1719099;82;21767;-72
2022/05/23 06:04:45;;;;;;;7.20;6.30;;;;;;;15.15;64.29;99744.08;1734102;82;21742;-70
2022/05/23 06:12:58;;;;;;;7.73;6.83;;;;;;;15.31;63.89;99747.75;1736232;80;21731;-71
2022/05/23 06:15:45;;;;;;;9.90;6.80;;;;;;;15.45;63.84;99740.38;1736222;82;21853;-69
2022/05/23 06:18:12;;;;;;;6.87;6.10;;;;;;;15.61;62.71;99744.25;1732577;82;21736;-70
2022/05/23 06:20:40;;;;;;;6.50;5.67;;;;;;;15.73;62.26;99745.05;1743456;82;21659;-70
2022/05/23 06:23:07;;;;;;;6.77;5.70;;;;;;;15.86;60.80;99745.50;1736493;82;21822;-70
2022/05/23 06:25:38;;;;;;;8.37;5.40;;;;;;;15.91;59.73;99742.64;1726814;82;21695;-70
2022/05/23 06:28:07;;;;;;;6.93;4.90;;;;;;;16.36;59.25;99745.13;1760489;81;21737;-71
2022/05/23 06:30:36;;;;;;;5.70;4.90;;;;;;;16.36;59.25;99745.13;1760777;80;21002;-71
2022/05/23 06:33:06;;;;;;;7.23;4.57;;;;;;;16.67;57.55;99746.89;1750596;80;21245;-71
2022/05/23 06:35:35;;;;;;;6.13;4.23;;;;;;;16.91;56.21;99736.98;1759349;80;21734;-70
2022/05/23 06:38:03;;;;;;;4.67;3.50;;;;;;;17.03;54.20;99739.84;1760808;80;21705;-70
2022/05/23 06:40:50;;;;;;;6.03;4.03;;;;;;;17.03;54.20;99739.84;1764667;80;21551;-69
2022/05/23 06:43:38;;;;;;;5.67;3.50;;;;;;;17.05;53.72;99744.38;1761057;80;21014;-71
2022/05/23 06:46:16;;;;;;;5.27;3.03;;;;;;;17.10;52.74;99750.14;1674069;84;21106;-70
2022/05/23 06:49:01;;;;;;;5.10;3.20;;;;;;;17.15;51.73;99752.69;1728119;82;20969;-70
2022/05/23 06:51:34;;;;;;;;;;;;;;;17.26;51.16;99754.48;1726544;81;21460;-70
2022/05/23 06:54:01;;;;;;;4.63;3.40;;;;;;;17.37;50.73;99753.02;1723471;81;21205;-72
2022/05/23 06:56:42;;;;;;;5.58;3.65;;;;;;;17.50;50.79;99752.02;1723240;81;20980;-70
2022/05/23 06:59:11;;;;;;;5.50;3.67;;;;;;;17.68;50.63;99749.28;1715029;82;21086;-71
2022/05/23 07:01:41;;;;;;;5.73;3.77;;;;;;;17.79;50.21;99750.53;1724925;81;21118;-70
2022/05/23 07:04:22;;;;;;;4.80;4.00;;;;;;;17.83;49.96;99747.41;1710028;81;21117;-71
2022/05/23 07:12:24;;;;;;;3.27;2.23;;;;;;;18.15;46.97;99749.23;1713713;81;21007;-70
2022/05/23 07:14:54;;;;;;;5.83;2.60;;;;;;;18.30;44.24;99736.51;1725727;81;21007;-70
2022/05/23 07:17:21;;;;;;;3.90;2.40;;;;;;;18.32;43.69;99742.36;1725055;81;20952;-71
2022/05/23 07:19:59;;;;;;;5.43;2.70;;;;;;;18.30;43.70;99745.97;1726192;81;21629;-69
2022/05/23 07:22:27;;;;;;;5.70;3.03;;;;;;;18.30;43.95;99745.19;1724957;81;20998;-72
2022/05/23 07:24:55;;;;;;;3.77;2.60;;;;;;;18.34;43.71;99746.89;1724614;81;20999;-70
2022/05/23 07:27:26;;;;;;;5.23;2.60;;;;;;;18.40;44.10;99742.09;1725000;81;21085;-71
2022/05/23 07:29:54;;;;;;;4.45;2.27;;;;;;;18.49;44.35;99738.73;1724770;81;21042;-70
2022/05/23 07:32:23;;;;;;;6.53;2.60;;;;;;;18.65;43.30;99732.97;1723565;81;21221;-71
2022/05/23 07:34:50;;;;;;;6.33;2.33;;;;;;;18.78;41.50;99733.84;1723682;81;21117;-70
2022/05/23 07:37:18;;;;;;;3.93;2.60;;;;;;;18.83;41.10;99726.89;1723441;81;21003;-69
2022/05/23 07:39:45;;;;;;;5.73;2.97;;;;;;;18.91;41.11;99726.01;1723873;81;21019;-69
2022/05/23 07:42:30;;;;;;;4.80;2.77;;;;;;;19.01;41.24;99724.02;1713636;82;21494;-71
2022/05/23 07:44:58;;;;;;;6.93;3.37;;;;;;;19.08;41.05;99733.16;1700874;83;21221;-71
2022/05/23 07:47:25;;;;;;;7.23;3.00;;;;;;;19.09;41.17;99732.06;1723973;80;21056;-71
2022/05/23 07:49:55;;;;;;;7.00;3.40;;;;;;;19.10;41.44;99732.84;1726071;82;21079;-72
2022/05/23 07:52:21;;;;;;;6.63;3.07;;;;;;;19.10;41.57;99730.92;1764856;80;21061;-70
2022/05/23 08:00:34;;;;;;;7.60;3.90;;;;;;;19.27;40.47;99739.99;1766807;80;21010;-72
2022/05/23 08:03:09;;;;;;;9.60;3.93;;;;;;;19.32;40.53;99740.58;1765522;80;21081;-71
2022/05/23 08:05:38;;;;;;;6.67;3.80;;;;;;;19.40;40.84;99745.09;1762724;80;20964;-71
2022/05/23 08:08:05;;;;;;;10.03;4.70;;;;;;;19.42;40.05;99744.77;1760928;80;21076;-71
2022/05/23 08:10:37;;;;;;;7.37;4.37;;;;;;;19.34;40.06;99735.59;1763787;80;21571;-70
2022/05/23 08:13:09;;;;;;;11.27;5.60;;;;;;;19.30;40.51;99736.62;1758894;81;20979;-72
2022/05/23 08:15:33;;;;;;;7.70;4.63;;;;;;;19.35;40.74;99737.77;1763533;80;20986;-71
2022/05/23 08:18:02;;;;;;;9.23;5.60;;;;;;;19.47;41.04;99732.92;1757464;80;21053;-71
2022/05/23 08:20:31;;;;;;;11.57;4.70;;;;;;;19.59;40.07;99734.30;1763246;80;21435;-72
2022/05/23 08:22:59;;;;;;;8.43;4.20;;;;;;;19.59;40.07;99741.86;1761837;80;21859;-69
2022/05/23 08:25:28;;;;;;;7.53;4.27;;;;;;;19.65;40.67;99731.63;1764868;80;21026;-70
2022/05/23 08:27:57;;;;;;;8.17;4.60;;;;;;;19.80;41.24;99726.87;1764830;80;20982;-71
2022/05/23 08:30:27;;;;;;;12.67;4.90;;;;;;;19.96;40.58;99728.91;1764235;80;21058;-71
2022/05/23 08:33:00;;;;;;;7.37;4.60;;;;;;;19.94;41.08;99729.80;1758924;81;20931;-71
2022/05/23 08:35:28;;;;;;;6.97;4.40;;;;;;;19.91;41.01;99734.80;1765723;80;21109;-71
2022/05/23 08:37:59;;;;;;;9.20;4.37;;;;;;;19.81;40.67;99730.37;1761936;80;21069;-70
2022/05/23 08:41:01;;;;;;;6.87;3.47;;;;;;;19.67;40.63;99728.78;1753030;79;20982;-70
2022/05/23 08:43:41;;;;;;;5.80;3.27;;;;;;;19.60;40.27;99727.74;1751555;80;20998;-70
2022/05/23 08:46:10;;;;;;;6.73;3.27;;;;;;;19.65;39.69;99731.63;1765828;80;21021;-70
2022/05/23 08:48:50;;;;;;;4.45;2.90;;;;;;;19.77;38.80;99726.77;1762022;80;21090;-70
2022/05/23 08:51:28;;;;;;;5.37;2.50;;;;;;;19.88;37.67;99729.27;1763086;80;21050;-70
2022/05/23 08:54:18;;;;;;;4.70;3.03;;;;;;;19.96;38.09;99732.41;1756414;81;21070;-70
2022/05/23 08:57:03;;;;;;;5.00;2.83;;;;;;;20.09;38.42;99734.55;1750593;80;21018;-70
2022/05/23 08:59:43;;;;;;;5.33;2.87;;;;;;;20.21;37.71;99729.69;1764529;80;20978;-70
2022/05/23 09:02:39;;;;;;;5.63;2.80;;;;;;;20.21;37.38;99729.11;1763242;80;21594;-71
2022/05/23 09:05:25;;;;;;;5.83;2.93;;;;;;;20.22;37.21;99734.75;1762958;80;21524;-71
2022/05/23 09:07:55;;;;;;;6.30;3.13;;;;;;;20.29;38.03;99728.75;1765252;80;21082;-71
2022/05/23 09:10:41;;;;;;;5.67;2.70;;;;;;;20.44;37.34;99725.91;1764758;80;21129;-71
2022/05/23 09:13:09;;;;;;;5.37;2.70;;;;;;;20.61;35.86;99724.30;1763037;80;21030;-71
2022/05/23 09:15:36;;;;;;;5.40;2.57;;;;;;;20.80;34.45;99738.59;1765591;80;21507;-71
2022/05/23 09:18:06;;;;;;;6.27;2.90;;;;;;;20.84;33.58;99723.98;1767107;80;21565;-72
2022/05/23 09:20:45;;;;;;;6.87;3.40;;;;;;;20.77;32.89;99726.50;1762920;80;21027;-71
2022/05/23 09:23:20;;;;;;;6.83;3.37;;;;;;;20.61;33.46;99725.66;1762592;80;21046;-70
2022/05/23 09:25:53;;;;;;;6.77;4.10;;;;;;;20.39;34.00;99726.92;1712029;82;20964;-71
2022/05/23 09:28:34;;;;;;;7.73;4.10;;;;;;;20.19;35.10;99729.23;1734505;82;21076;-72
2022/05/23 09:31:27;;;;;;;13.10;4.63;;;;;;;20.11;35.94;99736.36;1736289;82;20873;-70
2022/05/23 09:33:56;;;;;;;5.23;2.83;;;;;;;20.19;36.35;99731.37;1759502;81;20959;-70
2022/05/23 09:36:29;;;;;;;4.35;1.90;;;;;;;20.29;34.17;99730.89;1762401;80;21612;-71
2022/05/23 09:39:08;;;;;;;6.05;2.80;;;;;;;20.30;30.78;99738.46;1760807;80;21099;-69
2022/05/23 09:47:45;;;;;;;8.50;4.43;;;;;;;20.07;37.48;99736.80;1762599;80;21564;-70
2022/05/23 09:50:31;;;;;;;7.93;4.57;;;;;;;20.00;37.57;99731.16;1765847;80;21031;-71
2022/05/23 09:53:01;;;;;;;8.03;4.50;;;;;;;19.79;38.07;99733.44;1764797;80;21709;-72
2022/05/23 09:55:35;;;;;;;8.47;4.77;;;;;;;19.56;38.46;99735.75;1765402;80;21119;-71
2022/05/23 09:58:06;;;;;;;6.80;4.10;;;;;;;19.44;39.11;99737.09;1766621;80;20995;-72
2022/05/23 10:00:39;;;;;;;7.92;4.30;;;;;;;19.34;38.93;99733.45;1767435;80;21691;-70
2022/05/23 10:03:16;;;;;;;6.83;4.10;;;;;;;19.30;38.68;99731.98;1761670;81;21532;-71
2022/05/23 10:05:50;;;;;;;7.97;4.37;;;;;;;19.42;39.04;99727.95;1737387;82;21077;-72
2022/05/23 10:08:36;;;;;;;7.30;4.47;;;;;;;19.60;39.34;99731.81;1749102;80;21289;-70
2022/05/23 10:11:09;;;;;;;6.47;3.93;;;;;;;19.79;39.13;99734.79;1759722;80;21057;-71
2022/05/23 10:13:37;;;;;;;7.03;4.17;;;;;;;19.98;37.36;99728.80;1741396;81;21109;-70
2022/05/23 10:16:20;;;;;;;6.73;3.50;;;;;;;20.02;37.22;99729.70;1763917;80;21430;-72
2022/05/23 10:18:52;;;;;;;6.57;3.80;;;;;;;20.07;37.10;99734.90;1755275;80;21398;-70
2022/05/23 10:21:36;;;;;;;9.00;3.50;;;;;;;20.09;37.00;99728.55;1761127;80;21742;-71
2022/05/23 10:24:24;;;;;;;6.97;4.03;;;;;;;20.19;35.75;99740.86;1749932;80;21101;-71
2022/05/23 10:27:15;;;;;;;5.03;3.23;;;;;;;20.15;36.44;99737.25;1740428;81;21086;-72
2022/05/23 10:29:58;;;;;;;8.30;2.93;;;;;;;20.05;36.06;99726.87;1762450;80;20978;-72
2022/05/23 10:32:32;;;;;;;6.90;2.87;;;;;;;19.94;36.31;99737.94;1733849;82;21029;-71
2022/05/23 10:35:12;;;;;;;6.03;2.40;;;;;;;19.90;34.51;99742.67;1729991;82;21187;-71
2022/05/23 10:37:43;;;;;;;4.67;2.70;;;;;;;19.91;34.37;99730.73;1731969;82;20995;-70
2022/05/23 10:43:09;;;;;;;4.43;2.83;;;;;;;20.11;34.56;99729.02;1729444;80;21025;-71
2022/05/23 10:45:50;;;;;;;5.17;3.00;;;;;;;20.27;34.69;99731.00;1735558;82;21020;-70
2022/05/23 10:48:44;;;;;;;6.30;3.30;;;;;;;20.31;35.19;99728.64;1743384;82;21838;-70
2022/05/23 10:51:54;;;;;;;5.20;3.20;;;;;;;20.30;34.89;99738.46;1734316;82;20934;-71
2022/05/23 10:55:02;;;;;;;8.43;3.57;;;;;;;20.22;35.63;99730.69;1722838;81;21051;-72
2022/05/23 10:57:57;;;;;;;4.23;2.50;;;;;;;20.35;35.43;99726.81;1722601;81;21707;-72
2022/05/23 11:00:44;;;;;;;6.33;2.90;;;;;;;20.61;33.88;99720.23;1758110;80;21069;-71
2022/05/23 11:03:21;;;;;;;5.27;1.93;;;;;;;20.78;34.28;99730.78;1704125;82;21183;-72
2022/05/23 11:06:02;;;;;;;4.13;1.70;;;;;;;20.89;31.66;99745.22;1681776;83;21007;-70
2022/05/23 11:08:44;;;;;;;3.60;1.70;;;;;;;20.79;30.16;99754.06;1715277;82;21043;-72
2022/05/23 11:11:41;;;;;;;4.60;2.00;;;;;;;20.51;31.23;99778.47;1714400;82;21621;-72
2022/05/23 11:14:36;;;;;;;5.83;2.20;;;;;;;20.14;31.86;99764.94;1713456;82;21127;-70
2022/05/23 11:17:28;;;;;;;4.40;2.00;;;;;;;19.75;33.44;99763.70;1705736;82;22082;-70
2022/05/23 11:20:18;;;;;;;5.93;2.10;;;;;;;19.40;35.27;99771.39;1714877;82;20912;-70
2022/05/23 11:23:02;;;;;;;3.77;2.10;;;;;;;19.06;35.62;99777.38;1715600;82;20991;-71
2022/05/23 11:25:43;;;;;;;7.27;1.80;;;;;;;18.76;36.10;99767.78;1707781;82;21003;-70
2022/05/23 11:34:26;;;;;;;4.17;2.00;;;;;;;18.24;36.89;99765.63;1714445;82;21102;-70
2022/05/23 11:36:57;;;;;;;4.57;2.20;;;;;;;18.21;36.44;99762.23;1713833;82;21059;-71
2022/05/23 11:40:02;;;;;;;4.25;1.90;;;;;;;18.19;36.61;99771.78;1714536;82;21063;-70
2022/05/23 11:42:56;;;;;;;3.87;2.10;;;;;;;18.21;36.63;99770.91;1714842;82;21105;-71
2022/05/23 11:48:46;;;;;;;6.63;2.33;;;;;;;18.34;36.76;99776.62;1706000;82;21114;-70
2022/05/23 11:51:30;;;;;;;3.03;1.90;;;;;;;18.38;37.11;99772.14;1701125;82;21118;-70
2022/05/23 11:54:08;;;;;;;5.20;2.00;;;;;;;18.42;37.06;99782.52;1715049;82;21019;-72
2022/05/23 11:56:57;;;;;;;6.87;2.57;;;;;;;18.50;37.65;99774.93;1714073;82;21466;-70
2022/05/23 11:59:30;;;;;;;6.07;2.20;;;;;;;18.56;37.85;99763.91;1726097;82;21058;-70
2022/05/23 12:02:15;;;;;;;5.00;2.30;;;;;;;18.58;37.82;99765.73;1715999;82;21566;-71
2022/05/23 12:04:57;;;;;;;3.93;2.07;;;;;;;18.45;38.54;99765.65;1715775;82;21094;-70
2022/05/23 12:07:45;;;;;;;4.07;2.03;;;;;;;18.36;39.00;99761.41;1716379;82;21557;-70
2022/05/23 12:10:25;;;;;;;9.00;2.40;;;;;;;18.32;39.41;99769.39;1709882;82;21019;-70
2022/05/23 12:13:00;;;;;;;4.00;2.00;;;;;;;18.30;39.60;99770.30;1720076;82;21098;-70
2022/05/23 12:15:48;;;;;;;5.50;2.20;;;;;;;18.26;39.17;99774.22;1716065;82;21581;-70
2022/05/23 12:18:29;;;;;;;4.78;2.22;;;;;;;18.27;39.54;99772.30;1714504;82;21110;-69
2022/05/23 12:21:01;;;;;;;4.07;2.37;;;;;;;18.25;39.84;99776.67;1715099;82;21083;-70
2022/05/23 12:23:45;;;;;;;9.20;2.63;;;;;;;18.27;39.99;99775.80;1713924;82;21059;-71
2022/05/23 12:26:26;;;;;;;5.10;2.33;;;;;;;18.26;39.83;99782.86;1713443;82;21131;-70
2022/05/23 12:29:16;;;;;;;5.97;2.20;;;;;;;18.23;39.70;99781.63;1713278;82;21027;-71
2022/05/23 12:35:13;;;;;;;5.23;2.43;;;;;;;18.20;39.90;99786.34;1710902;82;21027;-70
2022/05/23 12:37:54;;;;;;;3.77;2.17;;;;;;;18.56;38.75;99773.37;1715743;82;21043;-72
2022/05/23 12:40:28;;;;;;;8.85;2.47;;;;;;;18.73;38.18;99778.70;1716365;82;22155;-70
2022/05/23 12:43:38;;;;;;;3.40;1.97;;;;;;;18.89;37.03;99772.13;1713012;82;21011;-71
2022/05/23 12:46:42;;;;;;;7.50;2.23;;;;;;;19.03;37.29;99774.55;1715919;82;21380;-70
2022/05/23 12:49:42;;;;;;;3.43;1.93;;;;;;;19.14;36.29;99773.00;1710384;82;21019;-70
2022/05/23 12:52:50;;;;;;;5.30;2.10;;;;;;;19.25;36.22;99775.53;1713405;82;20995;-71
2022/05/23 12:55:44;;;;;;;4.23;2.13;;;;;;;19.31;35.44;99772.82;1713175;82;21587;-71
2022/05/23 12:58:29;;;;;;;5.83;2.37;;;;;;;19.35;35.13;99775.11;1714883;82;21593;-71
2022/05/23 13:01:05;;;;;;;6.00;2.27;;;;;;;19.48;34.37;99771.05;1713726;82;20968;-72